This is the latest recevied weather packets stored in our database for station/object S50APT-10. If no packets are shown the sender has not sent any weather packets the latest 10 day(s).
| Time | Temp. | Humidity | Pressure | Rain* | Wind** | Luminosity | Snow |
|---|---|---|---|---|---|---|---|
| 1777651041 | 18.89° C | 30% | 1027.4 hPa | - | - | - | - |
| 1777650141 | 20° C | 28% | 1027.4 hPa | - | - | - | - |
| 1777649241 | 18.33° C | 31% | 1027.5 hPa | - | - | - | - |
| 1777648343 | 20.56° C | 27% | 1027.7 hPa | - | - | - | - |
| 1777647433 | 18.89° C | 29% | 1027.6 hPa | - | - | - | - |
| 1777646530 | 20.56° C | 27% | 1027.8 hPa | - | - | - | - |
| 1777645610 | 22.22° C | 26% | 1027.8 hPa | - | - | - | - |
| 1777644699 | 20.56° C | 27% | 1028 hPa | - | - | - | - |
| 1777643788 | 24.44° C | 24% | 1027.9 hPa | - | - | - | - |
| 1777642876 | 18.33° C | 31% | 1028.2 hPa | - | - | - | - |
| 1777641966 | 23.33° C | 23% | 1028.3 hPa | - | - | - | - |
| 1777641055 | 22.78° C | 25% | 1028.4 hPa | - | - | - | - |
| 1777640145 | 18.33° C | 30% | 1028.7 hPa | - | - | - | - |
| 1777639233 | 21.67° C | 26% | 1028.7 hPa | - | - | - | - |
| 1777638325 | 19.44° C | 28% | 1028.9 hPa | - | - | - | - |
| 1777638318 | 19.44° C | 28% | 1028.9 hPa | - | - | - | - |
| 1777637408 | 18.89° C | 27% | 1029 hPa | - | - | - | - |
| 1777636498 | 20° C | 26% | 1029 hPa | - | - | - | - |
| 1777634666 | 21.67° C | 24% | 1029.4 hPa | - | - | - | - |
| 1777633756 | 20.56° C | 24% | 1029.5 hPa | - | - | - | - |
| 1777632845 | 23.33° C | 23% | 1029.4 hPa | - | - | - | - |
| 1777631935 | 18.89° C | 26% | 1029.7 hPa | - | - | - | - |
| 1777631024 | 18.33° C | 28% | 1029.8 hPa | - | - | - | - |
| 1777630113 | 23.89° C | 22% | 1029.8 hPa | - | - | - | - |
| 1777629197 | 20° C | 25% | 1030.1 hPa | - | - | - | - |
* Rain since midnight (hover to see other rain measurements)
** Current wind speed in m/s (hover to see current wind gust speed)